sensor_id;sensor_type;location;lat;lon;timestamp;temperature;humidity
17236;DHT22;8734;59.272;17.780;2022-08-19T00:01:56;19.80;99.90
17236;DHT22;8734;59.272;17.780;2022-08-19T00:04:29;19.90;99.90
17236;DHT22;8734;59.272;17.780;2022-08-19T00:06:58;19.90;99.90
17236;DHT22;8734;59.272;17.780;2022-08-19T00:09:27;19.90;99.90
17236;DHT22;8734;59.272;17.780;2022-08-19T00:11:56;19.90;99.90
17236;DHT22;8734;59.272;17.780;2022-08-19T00:14:27;20.00;99.90
17236;DHT22;8734;59.272;17.780;2022-08-19T00:17:00;20.00;99.90
17236;DHT22;8734;59.272;17.780;2022-08-19T00:19:29;19.90;99.90
17236;DHT22;8734;59.272;17.780;2022-08-19T00:21:58;19.90;99.90
17236;DHT22;8734;59.272;17.780;2022-08-19T00:24:27;19.90;99.90
17236;DHT22;8734;59.272;17.780;2022-08-19T00:26:56;19.90;99.90
17236;DHT22;8734;59.272;17.780;2022-08-19T00:29:44;19.90;99.90
17236;DHT22;8734;59.272;17.780;2022-08-19T00:32:20;19.90;99.90
17236;DHT22;8734;59.272;17.780;2022-08-19T00:34:49;19.90;99.90
17236;DHT22;8734;59.272;17.780;2022-08-19T00:37:20;19.80;99.90
17236;DHT22;8734;59.272;17.780;2022-08-19T00:39:50;19.80;99.90
17236;DHT22;8734;59.272;17.780;2022-08-19T00:42:20;19.80;99.90
17236;DHT22;8734;59.272;17.780;2022-08-19T00:44:49;19.80;99.90
17236;DHT22;8734;59.272;17.780;2022-08-19T00:47:19;19.80;99.90
17236;DHT22;8734;59.272;17.780;2022-08-19T00:49:52;19.80;99.90
17236;DHT22;8734;59.272;17.780;2022-08-19T00:52:24;19.80;99.90
17236;DHT22;8734;59.272;17.780;2022-08-19T00:54:54;19.70;99.90
17236;DHT22;8734;59.272;17.780;2022-08-19T00:57:27;19.70;99.90
17236;DHT22;8734;59.272;17.780;2022-08-19T00:59:56;19.70;99.90
17236;DHT22;8734;59.272;17.780;2022-08-19T01:02:31;19.70;99.90
17236;DHT22;8734;59.272;17.780;2022-08-19T01:05:02;19.70;99.90
17236;DHT22;8734;59.272;17.780;2022-08-19T01:07:32;19.70;99.90
17236;DHT22;8734;59.272;17.780;2022-08-19T01:10:06;19.70;99.90
17236;DHT22;8734;59.272;17.780;2022-08-19T01:12:35;19.70;99.90
17236;DHT22;8734;59.272;17.780;2022-08-19T01:15:03;19.70;99.90
17236;DHT22;8734;59.272;17.780;2022-08-19T01:17:33;19.70;99.90
17236;DHT22;8734;59.272;17.780;2022-08-19T01:20:04;19.70;99.90
17236;DHT22;8734;59.272;17.780;2022-08-19T01:22:41;19.70;99.90
17236;DHT22;8734;59.272;17.780;2022-08-19T01:25:13;19.70;99.90
17236;DHT22;8734;59.272;17.780;2022-08-19T01:27:45;19.70;99.90
17236;DHT22;8734;59.272;17.780;2022-08-19T01:30:17;19.70;99.90
17236;DHT22;8734;59.272;17.780;2022-08-19T01:32:46;19.70;99.90
17236;DHT22;8734;59.272;17.780;2022-08-19T01:35:15;19.70;99.90
17236;DHT22;8734;59.272;17.780;2022-08-19T01:37:49;19.70;99.90
17236;DHT22;8734;59.272;17.780;2022-08-19T01:40:21;19.70;99.90
17236;DHT22;8734;59.272;17.780;2022-08-19T01:42:51;19.70;99.90
17236;DHT22;8734;59.272;17.780;2022-08-19T01:45:22;19.80;99.90
17236;DHT22;8734;59.272;17.780;2022-08-19T01:47:52;19.80;99.90
17236;DHT22;8734;59.272;17.780;2022-08-19T01:50:29;19.80;99.90
17236;DHT22;8734;59.272;17.780;2022-08-19T01:53:01;19.80;99.90
17236;DHT22;8734;59.272;17.780;2022-08-19T01:55:34;19.80;99.90
17236;DHT22;8734;59.272;17.780;2022-08-19T01:58:10;19.80;99.90
17236;DHT22;8734;59.272;17.780;2022-08-19T02:00:39;19.80;99.90
17236;DHT22;8734;59.272;17.780;2022-08-19T02:03:08;19.80;99.90
17236;DHT22;8734;59.272;17.780;2022-08-19T02:05:38;19.80;99.90
17236;DHT22;8734;59.272;17.780;2022-08-19T02:08:08;19.80;99.90
17236;DHT22;8734;59.272;17.780;2022-08-19T02:10:39;19.80;99.90
17236;DHT22;8734;59.272;17.780;2022-08-19T02:13:09;19.70;99.90
17236;DHT22;8734;59.272;17.780;2022-08-19T02:15:38;19.70;99.90
17236;DHT22;8734;59.272;17.780;2022-08-19T02:18:06;19.70;99.90
17236;DHT22;8734;59.272;17.780;2022-08-19T02:20:36;19.70;99.90
17236;DHT22;8734;59.272;17.780;2022-08-19T02:23:06;19.70;99.90
17236;DHT22;8734;59.272;17.780;2022-08-19T02:25:45;19.70;99.90
17236;DHT22;8734;59.272;17.780;2022-08-19T02:28:15;19.70;99.90
17236;DHT22;8734;59.272;17.780;2022-08-19T02:30:47;19.70;99.90
17236;DHT22;8734;59.272;17.780;2022-08-19T02:33:16;19.70;99.90
17236;DHT22;8734;59.272;17.780;2022-08-19T02:35:45;19.70;99.90
17236;DHT22;8734;59.272;17.780;2022-08-19T02:38:14;19.70;99.90
17236;DHT22;8734;59.272;17.780;2022-08-19T02:41:04;19.70;99.90
17236;DHT22;8734;59.272;17.780;2022-08-19T02:43:33;19.70;99.90
17236;DHT22;8734;59.272;17.780;2022-08-19T02:46:11;19.70;99.90
17236;DHT22;8734;59.272;17.780;2022-08-19T02:48:40;19.70;99.90
17236;DHT22;8734;59.272;17.780;2022-08-19T02:51:08;19.70;99.90
17236;DHT22;8734;59.272;17.780;2022-08-19T02:53:43;19.70;99.90
17236;DHT22;8734;59.272;17.780;2022-08-19T02:56:13;19.70;99.90
17236;DHT22;8734;59.272;17.780;2022-08-19T02:58:42;19.70;99.90
17236;DHT22;8734;59.272;17.780;2022-08-19T03:01:20;19.70;99.90
17236;DHT22;8734;59.272;17.780;2022-08-19T03:03:48;19.70;99.90
17236;DHT22;8734;59.272;17.780;2022-08-19T03:06:17;19.70;99.90
17236;DHT22;8734;59.272;17.780;2022-08-19T03:08:47;19.70;99.90
17236;DHT22;8734;59.272;17.780;2022-08-19T03:11:20;19.80;99.90
17236;DHT22;8734;59.272;17.780;2022-08-19T03:13:49;19.80;99.90
17236;DHT22;8734;59.272;17.780;2022-08-19T03:16:18;19.80;99.90
17236;DHT22;8734;59.272;17.780;2022-08-19T03:18:46;19.80;99.90
17236;DHT22;8734;59.272;17.780;2022-08-19T03:21:16;19.80;99.90
17236;DHT22;8734;59.272;17.780;2022-08-19T03:23:44;19.80;99.90
17236;DHT22;8734;59.272;17.780;2022-08-19T03:26:13;19.80;99.90
17236;DHT22;8734;59.272;17.780;2022-08-19T03:28:45;19.80;99.90
17236;DHT22;8734;59.272;17.780;2022-08-19T03:31:22;19.80;99.90
17236;DHT22;8734;59.272;17.780;2022-08-19T03:34:12;19.90;99.90
17236;DHT22;8734;59.272;17.780;2022-08-19T03:36:41;19.90;99.90
17236;DHT22;8734;59.272;17.780;2022-08-19T03:39:09;19.90;99.90
17236;DHT22;8734;59.272;17.780;2022-08-19T03:41:41;19.90;99.90
17236;DHT22;8734;59.272;17.780;2022-08-19T03:44:14;19.80;99.90
17236;DHT22;8734;59.272;17.780;2022-08-19T03:46:46;19.80;99.90
17236;DHT22;8734;59.272;17.780;2022-08-19T03:49:15;19.80;99.90
17236;DHT22;8734;59.272;17.780;2022-08-19T03:51:47;19.90;99.90
17236;DHT22;8734;59.272;17.780;2022-08-19T03:54:18;19.80;99.90
17236;DHT22;8734;59.272;17.780;2022-08-19T03:56:49;19.90;99.90
17236;DHT22;8734;59.272;17.780;2022-08-19T03:59:21;19.90;99.90
17236;DHT22;8734;59.272;17.780;2022-08-19T04:01:53;19.90;99.90
17236;DHT22;8734;59.272;17.780;2022-08-19T04:04:22;19.90;99.90
17236;DHT22;8734;59.272;17.780;2022-08-19T04:06:55;19.80;99.90
17236;DHT22;8734;59.272;17.780;2022-08-19T04:09:24;19.80;99.90
17236;DHT22;8734;59.272;17.780;2022-08-19T04:11:54;19.90;99.90
17236;DHT22;8734;59.272;17.780;2022-08-19T04:14:26;19.90;99.90
17236;DHT22;8734;59.272;17.780;2022-08-19T04:16:55;19.90;99.90
17236;DHT22;8734;59.272;17.780;2022-08-19T04:19:25;19.90;99.90
17236;DHT22;8734;59.272;17.780;2022-08-19T04:21:54;19.90;99.90
17236;DHT22;8734;59.272;17.780;2022-08-19T04:24:23;19.90;99.90
17236;DHT22;8734;59.272;17.780;2022-08-19T04:26:51;19.90;99.90
17236;DHT22;8734;59.272;17.780;2022-08-19T04:29:21;19.90;99.90
17236;DHT22;8734;59.272;17.780;2022-08-19T04:31:54;19.90;99.90
17236;DHT22;8734;59.272;17.780;2022-08-19T04:34:25;19.90;99.90
17236;DHT22;8734;59.272;17.780;2022-08-19T04:36:55;20.00;99.90
17236;DHT22;8734;59.272;17.780;2022-08-19T04:39:25;20.00;99.90
17236;DHT22;8734;59.272;17.780;2022-08-19T04:42:16;19.90;99.90
17236;DHT22;8734;59.272;17.780;2022-08-19T04:45:03;20.00;99.90
17236;DHT22;8734;59.272;17.780;2022-08-19T04:47:40;20.00;99.90
17236;DHT22;8734;59.272;17.780;2022-08-19T04:50:25;20.00;99.90
17236;DHT22;8734;59.272;17.780;2022-08-19T04:52:54;19.90;99.90
17236;DHT22;8734;59.272;17.780;2022-08-19T04:55:23;20.00;99.90
17236;DHT22;8734;59.272;17.780;2022-08-19T04:57:52;20.00;99.90
17236;DHT22;8734;59.272;17.780;2022-08-19T05:00:20;20.00;99.90
17236;DHT22;8734;59.272;17.780;2022-08-19T05:02:50;20.10;99.90
17236;DHT22;8734;59.272;17.780;2022-08-19T05:05:19;20.20;99.90
17236;DHT22;8734;59.272;17.780;2022-08-19T05:07:48;20.20;99.90
17236;DHT22;8734;59.272;17.780;2022-08-19T05:10:16;20.30;99.90
17236;DHT22;8734;59.272;17.780;2022-08-19T05:12:45;20.30;99.90
17236;DHT22;8734;59.272;17.780;2022-08-19T05:15:13;20.30;99.90
17236;DHT22;8734;59.272;17.780;2022-08-19T05:17:42;20.20;99.90
17236;DHT22;8734;59.272;17.780;2022-08-19T05:20:32;20.20;99.90
17236;DHT22;8734;59.272;17.780;2022-08-19T05:23:17;20.20;99.90
17236;DHT22;8734;59.272;17.780;2022-08-19T05:25:49;20.30;99.90
17236;DHT22;8734;59.272;17.780;2022-08-19T05:28:18;20.50;99.90
17236;DHT22;8734;59.272;17.780;2022-08-19T05:30:47;20.60;99.90
17236;DHT22;8734;59.272;17.780;2022-08-19T05:33:21;20.60;99.90
17236;DHT22;8734;59.272;17.780;2022-08-19T05:35:51;20.60;99.90
17236;DHT22;8734;59.272;17.780;2022-08-19T05:38:20;20.70;99.90
17236;DHT22;8734;59.272;17.780;2022-08-19T05:40:48;20.70;99.90
17236;DHT22;8734;59.272;17.780;2022-08-19T05:43:17;20.60;99.90
17236;DHT22;8734;59.272;17.780;2022-08-19T05:45:45;20.70;99.90
17236;DHT22;8734;59.272;17.780;2022-08-19T05:48:13;20.60;99.90
17236;DHT22;8734;59.272;17.780;2022-08-19T05:50:47;20.70;99.90
17236;DHT22;8734;59.272;17.780;2022-08-19T05:53:18;20.60;99.90
17236;DHT22;8734;59.272;17.780;2022-08-19T05:55:47;20.50;99.90
17236;DHT22;8734;59.272;17.780;2022-08-19T05:58:15;20.60;99.90
17236;DHT22;8734;59.272;17.780;2022-08-19T06:00:48;20.70;99.90
17236;DHT22;8734;59.272;17.780;2022-08-19T06:03:17;20.80;99.90
17236;DHT22;8734;59.272;17.780;2022-08-19T06:05:45;20.90;99.90
17236;DHT22;8734;59.272;17.780;2022-08-19T06:08:19;21.00;99.90
17236;DHT22;8734;59.272;17.780;2022-08-19T06:11:14;21.10;99.90
17236;DHT22;8734;59.272;17.780;2022-08-19T06:13:43;21.20;99.90
17236;DHT22;8734;59.272;17.780;2022-08-19T06:16:16;21.30;99.90
17236;DHT22;8734;59.272;17.780;2022-08-19T06:18:48;21.30;99.90
17236;DHT22;8734;59.272;17.780;2022-08-19T06:21:19;21.40;99.90
17236;DHT22;8734;59.272;17.780;2022-08-19T06:23:49;21.50;99.90
17236;DHT22;8734;59.272;17.780;2022-08-19T06:26:19;21.70;99.90
17236;DHT22;8734;59.272;17.780;2022-08-19T06:28:48;21.80;99.90
17236;DHT22;8734;59.272;17.780;2022-08-19T06:31:20;21.90;99.90
17236;DHT22;8734;59.272;17.780;2022-08-19T06:33:49;21.90;99.90
17236;DHT22;8734;59.272;17.780;2022-08-19T06:36:19;21.90;99.90
17236;DHT22;8734;59.272;17.780;2022-08-19T06:38:53;21.90;99.90
17236;DHT22;8734;59.272;17.780;2022-08-19T06:41:22;21.90;99.90
17236;DHT22;8734;59.272;17.780;2022-08-19T06:43:50;21.80;99.90
17236;DHT22;8734;59.272;17.780;2022-08-19T06:46:22;21.80;99.90
17236;DHT22;8734;59.272;17.780;2022-08-19T06:48:52;21.70;99.90
17236;DHT22;8734;59.272;17.780;2022-08-19T06:51:22;21.70;99.90
17236;DHT22;8734;59.272;17.780;2022-08-19T06:53:56;21.80;99.90
17236;DHT22;8734;59.272;17.780;2022-08-19T06:56:30;21.90;99.90
17236;DHT22;8734;59.272;17.780;2022-08-19T06:59:01;21.90;99.90
17236;DHT22;8734;59.272;17.780;2022-08-19T07:01:29;22.00;99.90
17236;DHT22;8734;59.272;17.780;2022-08-19T07:03:58;22.00;99.90
17236;DHT22;8734;59.272;17.780;2022-08-19T07:06:28;22.10;99.90
17236;DHT22;8734;59.272;17.780;2022-08-19T07:09:15;22.20;99.90
17236;DHT22;8734;59.272;17.780;2022-08-19T07:11:45;22.30;99.90
17236;DHT22;8734;59.272;17.780;2022-08-19T07:14:16;22.50;99.90
17236;DHT22;8734;59.272;17.780;2022-08-19T07:16:47;22.60;99.90
17236;DHT22;8734;59.272;17.780;2022-08-19T07:19:17;22.80;99.90
17236;DHT22;8734;59.272;17.780;2022-08-19T07:21:47;22.90;99.90
17236;DHT22;8734;59.272;17.780;2022-08-19T07:24:17;23.10;99.90
17236;DHT22;8734;59.272;17.780;2022-08-19T07:26:47;23.20;99.90
17236;DHT22;8734;59.272;17.780;2022-08-19T07:29:18;23.40;99.90
17236;DHT22;8734;59.272;17.780;2022-08-19T07:31:55;23.70;99.90
17236;DHT22;8734;59.272;17.780;2022-08-19T07:34:26;23.90;99.90
17236;DHT22;8734;59.272;17.780;2022-08-19T07:36:56;24.40;99.90
17236;DHT22;8734;59.272;17.780;2022-08-19T07:39:28;24.80;99.90
17236;DHT22;8734;59.272;17.780;2022-08-19T07:42:00;25.10;99.90
17236;DHT22;8734;59.272;17.780;2022-08-19T07:44:29;25.60;99.90
17236;DHT22;8734;59.272;17.780;2022-08-19T07:46:58;25.80;99.90
17236;DHT22;8734;59.272;17.780;2022-08-19T07:49:27;26.10;99.90
17236;DHT22;8734;59.272;17.780;2022-08-19T07:51:58;26.70;99.90
17236;DHT22;8734;59.272;17.780;2022-08-19T07:54:32;27.00;99.90
17236;DHT22;8734;59.272;17.780;2022-08-19T07:57:02;27.40;99.90
17236;DHT22;8734;59.272;17.780;2022-08-19T07:59:32;27.80;99.90
17236;DHT22;8734;59.272;17.780;2022-08-19T08:02:00;27.90;99.90
17236;DHT22;8734;59.272;17.780;2022-08-19T08:04:30;28.10;99.90
17236;DHT22;8734;59.272;17.780;2022-08-19T08:07:17;28.30;99.90
17236;DHT22;8734;59.272;17.780;2022-08-19T08:10:06;28.50;99.90
17236;DHT22;8734;59.272;17.780;2022-08-19T08:12:47;28.50;99.90
17236;DHT22;8734;59.272;17.780;2022-08-19T08:15:36;28.70;99.90
17236;DHT22;8734;59.272;17.780;2022-08-19T08:18:09;29.00;99.90
17236;DHT22;8734;59.272;17.780;2022-08-19T08:20:38;29.50;99.90
17236;DHT22;8734;59.272;17.780;2022-08-19T08:23:06;29.80;99.90
17236;DHT22;8734;59.272;17.780;2022-08-19T08:25:55;29.80;99.90
17236;DHT22;8734;59.272;17.780;2022-08-19T08:28:25;29.80;99.90
17236;DHT22;8734;59.272;17.780;2022-08-19T08:30:57;30.00;99.90
17236;DHT22;8734;59.272;17.780;2022-08-19T08:33:27;30.10;99.90
17236;DHT22;8734;59.272;17.780;2022-08-19T08:36:01;30.20;99.90
17236;DHT22;8734;59.272;17.780;2022-08-19T08:38:30;30.20;99.90
17236;DHT22;8734;59.272;17.780;2022-08-19T08:41:15;30.90;99.90
17236;DHT22;8734;59.272;17.780;2022-08-19T08:43:49;31.30;99.90
17236;DHT22;8734;59.272;17.780;2022-08-19T08:46:23;31.50;99.90
17236;DHT22;8734;59.272;17.780;2022-08-19T08:49:01;31.30;99.90
17236;DHT22;8734;59.272;17.780;2022-08-19T08:51:36;31.60;99.90
17236;DHT22;8734;59.272;17.780;2022-08-19T08:54:12;31.90;99.90
17236;DHT22;8734;59.272;17.780;2022-08-19T08:56:43;32.00;99.90
17236;DHT22;8734;59.272;17.780;2022-08-19T08:59:19;32.30;99.90
17236;DHT22;8734;59.272;17.780;2022-08-19T09:01:49;32.10;99.90
17236;DHT22;8734;59.272;17.780;2022-08-19T09:04:18;32.40;99.90
17236;DHT22;8734;59.272;17.780;2022-08-19T09:06:51;32.50;99.90
17236;DHT22;8734;59.272;17.780;2022-08-19T09:09:29;32.50;99.90
17236;DHT22;8734;59.272;17.780;2022-08-19T09:12:07;32.70;99.90
17236;DHT22;8734;59.272;17.780;2022-08-19T09:14:45;32.60;99.90
17236;DHT22;8734;59.272;17.780;2022-08-19T09:17:20;32.50;99.90
17236;DHT22;8734;59.272;17.780;2022-08-19T09:20:00;32.50;99.90
17236;DHT22;8734;59.272;17.780;2022-08-19T09:22:35;32.70;99.90
17236;DHT22;8734;59.272;17.780;2022-08-19T09:25:05;33.10;99.90
17236;DHT22;8734;59.272;17.780;2022-08-19T09:27:36;33.40;99.90
17236;DHT22;8734;59.272;17.780;2022-08-19T09:30:13;33.90;99.90
17236;DHT22;8734;59.272;17.780;2022-08-19T09:32:43;34.20;99.90
17236;DHT22;8734;59.272;17.780;2022-08-19T09:35:13;34.40;99.90
17236;DHT22;8734;59.272;17.780;2022-08-19T09:37:42;34.50;99.90
17236;DHT22;8734;59.272;17.780;2022-08-19T09:40:12;34.60;99.90
17236;DHT22;8734;59.272;17.780;2022-08-19T09:42:43;34.60;99.90
17236;DHT22;8734;59.272;17.780;2022-08-19T09:45:18;34.00;99.90
17236;DHT22;8734;59.272;17.780;2022-08-19T09:47:49;33.90;99.90
17236;DHT22;8734;59.272;17.780;2022-08-19T09:50:21;34.00;99.90
17236;DHT22;8734;59.272;17.780;2022-08-19T09:52:50;34.40;99.90
17236;DHT22;8734;59.272;17.780;2022-08-19T09:55:24;34.40;99.90
17236;DHT22;8734;59.272;17.780;2022-08-19T09:58:02;33.60;99.90
17236;DHT22;8734;59.272;17.780;2022-08-19T10:00:30;33.30;99.90
17236;DHT22;8734;59.272;17.780;2022-08-19T10:03:00;33.80;99.90
17236;DHT22;8734;59.272;17.780;2022-08-19T10:05:29;34.00;99.90
17236;DHT22;8734;59.272;17.780;2022-08-19T10:08:17;33.90;99.90
17236;DHT22;8734;59.272;17.780;2022-08-19T10:10:47;33.20;99.90
17236;DHT22;8734;59.272;17.780;2022-08-19T10:13:19;33.20;99.90
17236;DHT22;8734;59.272;17.780;2022-08-19T10:15:48;32.40;99.90
17236;DHT22;8734;59.272;17.780;2022-08-19T10:18:19;32.80;99.90
17236;DHT22;8734;59.272;17.780;2022-08-19T10:20:49;33.30;99.90
17236;DHT22;8734;59.272;17.780;2022-08-19T10:23:20;34.60;99.90
17236;DHT22;8734;59.272;17.780;2022-08-19T10:25:49;35.50;99.90
17236;DHT22;8734;59.272;17.780;2022-08-19T10:28:22;36.40;99.90
17236;DHT22;8734;59.272;17.780;2022-08-19T10:30:50;37.20;96.90
17236;DHT22;8734;59.272;17.780;2022-08-19T10:33:19;36.90;96.30
17236;DHT22;8734;59.272;17.780;2022-08-19T10:36:09;37.40;96.10
17236;DHT22;8734;59.272;17.780;2022-08-19T10:38:38;38.00;93.80
17236;DHT22;8734;59.272;17.780;2022-08-19T10:41:20;37.30;94.10
17236;DHT22;8734;59.272;17.780;2022-08-19T10:43:52;37.30;94.10
17236;DHT22;8734;59.272;17.780;2022-08-19T10:46:23;38.50;91.80
17236;DHT22;8734;59.272;17.780;2022-08-19T10:48:52;38.50;86.90
17236;DHT22;8734;59.272;17.780;2022-08-19T10:51:21;38.50;87.90
17236;DHT22;8734;59.272;17.780;2022-08-19T10:54:14;38.50;86.30
17236;DHT22;8734;59.272;17.780;2022-08-19T10:56:42;38.00;89.80
17236;DHT22;8734;59.272;17.780;2022-08-19T10:59:23;37.80;89.60
17236;DHT22;8734;59.272;17.780;2022-08-19T11:02:00;38.50;87.30
17236;DHT22;8734;59.272;17.780;2022-08-19T11:04:29;39.30;84.90
17236;DHT22;8734;59.272;17.780;2022-08-19T11:06:58;39.40;81.30
17236;DHT22;8734;59.272;17.780;2022-08-19T11:09:27;38.70;83.10
17236;DHT22;8734;59.272;17.780;2022-08-19T11:12:00;37.00;85.00
17236;DHT22;8734;59.272;17.780;2022-08-19T11:14:34;36.80;86.70
17236;DHT22;8734;59.272;17.780;2022-08-19T11:17:03;37.60;84.80
17236;DHT22;8734;59.272;17.780;2022-08-19T11:19:33;37.40;84.10
17236;DHT22;8734;59.272;17.780;2022-08-19T11:22:01;37.00;83.60
17236;DHT22;8734;59.272;17.780;2022-08-19T11:24:31;34.30;90.70
17236;DHT22;8734;59.272;17.780;2022-08-19T11:27:04;34.50;92.20
17236;DHT22;8734;59.272;17.780;2022-08-19T11:29:38;36.70;90.60
17236;DHT22;8734;59.272;17.780;2022-08-19T11:32:09;38.30;84.00
17236;DHT22;8734;59.272;17.780;2022-08-19T11:34:38;38.10;82.00
17236;DHT22;8734;59.272;17.780;2022-08-19T11:37:07;38.50;80.90
17236;DHT22;8734;59.272;17.780;2022-08-19T11:39:36;36.90;84.30
17236;DHT22;8734;59.272;17.780;2022-08-19T11:42:06;34.80;87.60
17236;DHT22;8734;59.272;17.780;2022-08-19T11:44:56;33.70;90.00
17236;DHT22;8734;59.272;17.780;2022-08-19T11:47:25;35.20;90.70
17236;DHT22;8734;59.272;17.780;2022-08-19T11:49:53;37.20;84.30
17236;DHT22;8734;59.272;17.780;2022-08-19T11:52:21;36.70;82.60
17236;DHT22;8734;59.272;17.780;2022-08-19T11:54:49;36.80;85.30
17236;DHT22;8734;59.272;17.780;2022-08-19T11:57:18;36.00;83.70
17236;DHT22;8734;59.272;17.780;2022-08-19T11:59:51;36.00;88.50
17236;DHT22;8734;59.272;17.780;2022-08-19T12:02:21;37.60;85.00
17236;DHT22;8734;59.272;17.780;2022-08-19T12:04:50;38.70;80.00
17236;DHT22;8734;59.272;17.780;2022-08-19T12:07:18;37.50;79.50
17236;DHT22;8734;59.272;17.780;2022-08-19T12:09:47;36.80;83.90
17236;DHT22;8734;59.272;17.780;2022-08-19T12:12:15;37.90;80.60
17236;DHT22;8734;59.272;17.780;2022-08-19T12:14:43;38.40;79.90
17236;DHT22;8734;59.272;17.780;2022-08-19T12:17:13;37.50;79.80
17236;DHT22;8734;59.272;17.780;2022-08-19T12:19:45;37.00;81.00
17236;DHT22;8734;59.272;17.780;2022-08-19T12:22:13;37.80;81.50
17236;DHT22;8734;59.272;17.780;2022-08-19T12:24:42;37.10;80.70
17236;DHT22;8734;59.272;17.780;2022-08-19T12:27:10;35.60;83.50
17236;DHT22;8734;59.272;17.780;2022-08-19T12:29:46;34.00;86.00
17236;DHT22;8734;59.272;17.780;2022-08-19T12:32:15;33.70;90.60
17236;DHT22;8734;59.272;17.780;2022-08-19T12:34:45;35.00;89.40
17236;DHT22;8734;59.272;17.780;2022-08-19T12:37:14;34.60;87.10
17236;DHT22;8734;59.272;17.780;2022-08-19T12:39:44;33.70;89.50
17236;DHT22;8734;59.272;17.780;2022-08-19T12:42:14;33.30;91.60
17236;DHT22;8734;59.272;17.780;2022-08-19T12:44:43;33.70;91.20
17236;DHT22;8734;59.272;17.780;2022-08-19T12:47:12;33.80;91.40
17236;DHT22;8734;59.272;17.780;2022-08-19T12:49:41;33.60;91.50
17236;DHT22;8734;59.272;17.780;2022-08-19T12:52:24;33.50;90.00
17236;DHT22;8734;59.272;17.780;2022-08-19T12:54:55;34.10;91.00
17236;DHT22;8734;59.272;17.780;2022-08-19T12:57:26;35.00;91.00
17236;DHT22;8734;59.272;17.780;2022-08-19T13:00:00;35.30;86.80
17236;DHT22;8734;59.272;17.780;2022-08-19T13:02:31;35.20;88.00
17236;DHT22;8734;59.272;17.780;2022-08-19T13:05:06;34.30;89.50
17236;DHT22;8734;59.272;17.780;2022-08-19T13:07:38;33.50;90.20
17236;DHT22;8734;59.272;17.780;2022-08-19T13:10:09;33.20;91.20
17236;DHT22;8734;59.272;17.780;2022-08-19T13:12:38;33.00;90.70
17236;DHT22;8734;59.272;17.780;2022-08-19T13:15:08;32.80;92.90
17236;DHT22;8734;59.272;17.780;2022-08-19T13:17:38;33.30;93.50
17236;DHT22;8734;59.272;17.780;2022-08-19T13:20:08;33.40;93.30
17236;DHT22;8734;59.272;17.780;2022-08-19T13:22:38;33.20;93.40
17236;DHT22;8734;59.272;17.780;2022-08-19T13:25:08;32.70;95.00
17236;DHT22;8734;59.272;17.780;2022-08-19T13:27:37;32.50;94.90
17236;DHT22;8734;59.272;17.780;2022-08-19T13:30:09;32.50;94.70
17236;DHT22;8734;59.272;17.780;2022-08-19T13:32:55;32.30;94.60
17236;DHT22;8734;59.272;17.780;2022-08-19T13:35:45;32.10;95.50
17236;DHT22;8734;59.272;17.780;2022-08-19T13:38:17;32.30;96.00
17236;DHT22;8734;59.272;17.780;2022-08-19T13:40:46;32.20;95.40
17236;DHT22;8734;59.272;17.780;2022-08-19T13:43:17;31.80;96.50
17236;DHT22;8734;59.272;17.780;2022-08-19T13:45:50;31.50;97.70
17236;DHT22;8734;59.272;17.780;2022-08-19T13:48:19;31.30;98.10
17236;DHT22;8734;59.272;17.780;2022-08-19T13:50:48;31.10;98.90
17236;DHT22;8734;59.272;17.780;2022-08-19T13:53:18;31.10;99.50
17236;DHT22;8734;59.272;17.780;2022-08-19T13:55:47;31.30;99.90
17236;DHT22;8734;59.272;17.780;2022-08-19T13:58:17;31.50;99.90
17236;DHT22;8734;59.272;17.780;2022-08-19T14:00:47;31.80;99.90
17236;DHT22;8734;59.272;17.780;2022-08-19T14:03:16;31.80;99.90
17236;DHT22;8734;59.272;17.780;2022-08-19T14:05:45;31.70;99.90
17236;DHT22;8734;59.272;17.780;2022-08-19T14:08:14;31.60;99.90
17236;DHT22;8734;59.272;17.780;2022-08-19T14:10:45;31.40;99.90
17236;DHT22;8734;59.272;17.780;2022-08-19T14:13:16;31.30;99.90
17236;DHT22;8734;59.272;17.780;2022-08-19T14:15:45;31.30;99.90
17236;DHT22;8734;59.272;17.780;2022-08-19T14:18:14;31.20;99.90
17236;DHT22;8734;59.272;17.780;2022-08-19T14:20:44;31.00;99.90
17236;DHT22;8734;59.272;17.780;2022-08-19T14:23:13;30.90;99.90
17236;DHT22;8734;59.272;17.780;2022-08-19T14:25:41;30.80;99.90
17236;DHT22;8734;59.272;17.780;2022-08-19T14:28:11;30.60;99.90
17236;DHT22;8734;59.272;17.780;2022-08-19T14:30:40;30.50;99.90
17236;DHT22;8734;59.272;17.780;2022-08-19T14:33:08;30.40;99.90
17236;DHT22;8734;59.272;17.780;2022-08-19T14:35:37;30.20;99.90
17236;DHT22;8734;59.272;17.780;2022-08-19T14:38:06;30.10;99.90
17236;DHT22;8734;59.272;17.780;2022-08-19T14:40:42;30.00;99.90
17236;DHT22;8734;59.272;17.780;2022-08-19T14:43:13;30.10;99.90
17236;DHT22;8734;59.272;17.780;2022-08-19T14:45:43;30.10;99.90
17236;DHT22;8734;59.272;17.780;2022-08-19T14:48:12;30.20;99.90
17236;DHT22;8734;59.272;17.780;2022-08-19T14:50:45;30.40;99.90
17236;DHT22;8734;59.272;17.780;2022-08-19T14:53:16;30.80;99.90
17236;DHT22;8734;59.272;17.780;2022-08-19T14:55:46;31.00;99.90
17236;DHT22;8734;59.272;17.780;2022-08-19T14:58:16;31.20;99.90
17236;DHT22;8734;59.272;17.780;2022-08-19T15:00:57;31.40;99.90
17236;DHT22;8734;59.272;17.780;2022-08-19T15:03:26;31.40;99.90
17236;DHT22;8734;59.272;17.780;2022-08-19T15:05:56;31.30;99.90
17236;DHT22;8734;59.272;17.780;2022-08-19T15:08:25;31.20;99.90
17236;DHT22;8734;59.272;17.780;2022-08-19T15:10:54;31.10;99.90
17236;DHT22;8734;59.272;17.780;2022-08-19T15:13:25;31.20;99.90
17236;DHT22;8734;59.272;17.780;2022-08-19T15:15:54;31.10;99.90
17236;DHT22;8734;59.272;17.780;2022-08-19T15:18:24;30.70;99.90
17236;DHT22;8734;59.272;17.780;2022-08-19T15:20:53;30.80;99.90
17236;DHT22;8734;59.272;17.780;2022-08-19T15:23:21;31.00;99.90
17236;DHT22;8734;59.272;17.780;2022-08-19T15:25:50;31.00;99.90
17236;DHT22;8734;59.272;17.780;2022-08-19T15:28:25;31.00;99.90
17236;DHT22;8734;59.272;17.780;2022-08-19T15:30:53;30.70;99.90
17236;DHT22;8734;59.272;17.780;2022-08-19T15:33:22;30.50;99.90
17236;DHT22;8734;59.272;17.780;2022-08-19T15:35:50;30.30;99.90
17236;DHT22;8734;59.272;17.780;2022-08-19T15:38:20;30.10;99.90
17236;DHT22;8734;59.272;17.780;2022-08-19T15:40:50;29.90;99.90
17236;DHT22;8734;59.272;17.780;2022-08-19T15:43:20;29.80;99.90
17236;DHT22;8734;59.272;17.780;2022-08-19T15:45:50;29.60;99.90
17236;DHT22;8734;59.272;17.780;2022-08-19T15:48:19;29.50;99.90
17236;DHT22;8734;59.272;17.780;2022-08-19T15:50:47;29.50;99.90
17236;DHT22;8734;59.272;17.780;2022-08-19T15:53:16;29.50;99.90
17236;DHT22;8734;59.272;17.780;2022-08-19T15:55:45;29.50;99.90
17236;DHT22;8734;59.272;17.780;2022-08-19T15:58:14;29.40;99.90